createdAt,value
2023-02-14T00:00:55.005Z,9.36
2023-02-14T00:05:58.291Z,9.32
2023-02-14T00:11:01.479Z,9.32
2023-02-14T00:16:04.904Z,9.28
2023-02-14T00:21:07.909Z,9.25
2023-02-14T00:26:17.090Z,9.26
2023-02-14T00:31:20.945Z,9.23
2023-02-14T00:36:25.404Z,9.18
2023-02-14T00:41:28.877Z,9.25
2023-02-14T00:46:31.983Z,9.28
2023-02-14T00:51:35.317Z,9.33
2023-02-14T00:56:38.590Z,9.40
2023-02-14T01:01:41.687Z,9.45
2023-02-14T01:06:46.032Z,9.46
2023-02-14T01:11:49.586Z,9.45
2023-02-14T01:16:52.845Z,9.43
2023-02-14T01:21:56.166Z,9.41
2023-02-14T01:26:59.730Z,9.44
2023-02-14T01:32:03.102Z,9.49
2023-02-14T01:37:06.157Z,9.51
2023-02-14T01:42:11.155Z,9.53
2023-02-14T01:47:17.394Z,9.56
2023-02-14T01:52:26.920Z,9.51
2023-02-14T01:57:40.964Z,9.41
2023-02-14T02:02:44.620Z,9.35
2023-02-14T02:07:48.162Z,9.32
2023-02-14T02:12:53.349Z,9.31
2023-02-14T02:18:42.651Z,9.35
2023-02-14T02:23:58.994Z,9.33
2023-02-14T02:29:32.297Z,9.28
2023-02-14T02:34:41.186Z,9.25
2023-02-14T02:40:06.751Z,9.30
2023-02-14T02:45:24.068Z,9.34
2023-02-14T02:50:38.060Z,9.37
2023-02-14T02:56:10.147Z,9.40
2023-02-14T03:01:17.781Z,9.39
2023-02-14T03:06:21.119Z,9.37
2023-02-14T03:11:26.118Z,9.39
2023-02-14T03:16:44.330Z,9.35
2023-02-14T03:22:01.022Z,9.31
2023-02-14T03:27:13.372Z,9.26
2023-02-14T03:32:35.759Z,9.22
2023-02-14T03:37:47.095Z,9.21
2023-02-14T03:42:57.553Z,9.16
2023-02-14T03:48:07.786Z,9.13
2023-02-14T03:53:15.232Z,9.09
2023-02-14T03:58:30.603Z,9.05
2023-02-14T04:03:39.483Z,9.03
2023-02-14T04:08:42.681Z,9.01
2023-02-14T04:13:45.916Z,8.99
2023-02-14T04:18:48.900Z,8.97
2023-02-14T04:23:52.039Z,8.98
2023-02-14T04:28:55.113Z,9.00
2023-02-14T04:33:58.177Z,9.01
2023-02-14T04:39:01.404Z,9.01
2023-02-14T04:44:04.737Z,9.03
2023-02-14T04:49:08.520Z,9.03
2023-02-14T04:54:12.014Z,9.07
2023-02-14T04:59:14.960Z,9.08
2023-02-14T05:04:18.180Z,9.09
2023-02-14T05:09:21.756Z,9.13
2023-02-14T05:14:24.940Z,9.15
2023-02-14T05:19:28.585Z,9.21
2023-02-14T05:24:31.750Z,9.25
2023-02-14T05:29:35.077Z,9.32
2023-02-14T05:34:38.164Z,9.40
2023-02-14T05:39:41.222Z,9.49
2023-02-14T05:44:44.316Z,9.58
2023-02-14T05:49:47.406Z,9.72
2023-02-14T05:54:50.844Z,9.84
2023-02-14T05:59:54.204Z,10.03
2023-02-14T06:04:57.395Z,10.32
2023-02-14T06:10:00.624Z,10.59
2023-02-14T06:15:04.375Z,10.72
2023-02-14T06:20:08.936Z,11.00
2023-02-14T06:25:12.118Z,11.44
2023-02-14T06:30:17.650Z,11.52
2023-02-14T06:35:20.894Z,11.30
2023-02-14T06:40:24.083Z,11.22
2023-02-14T06:45:27.164Z,11.02
2023-02-14T06:50:30.248Z,11.37
2023-02-14T06:55:33.341Z,12.33
2023-02-14T07:00:36.420Z,12.15
2023-02-14T07:05:39.852Z,11.64
2023-02-14T07:10:43.457Z,11.42
2023-02-14T07:15:47.824Z,11.35
2023-02-14T07:20:51.421Z,11.30
2023-02-14T07:25:55.950Z,11.33
2023-02-14T07:31:03.611Z,11.34
2023-02-14T07:36:08.967Z,11.48
2023-02-14T07:41:12.242Z,11.48
2023-02-14T07:46:15.240Z,11.62
2023-02-14T07:51:18.395Z,11.78
2023-02-14T07:56:21.417Z,11.84
2023-02-14T08:01:24.721Z,11.87
2023-02-14T08:06:27.858Z,11.96
2023-02-14T08:11:30.974Z,12.02
2023-02-14T08:16:34.089Z,12.20
2023-02-14T08:21:37.202Z,12.32
2023-02-14T08:26:40.320Z,12.36
2023-02-14T08:31:43.671Z,12.43
2023-02-14T08:36:46.833Z,12.59
2023-02-14T08:41:50.126Z,12.62
2023-02-14T08:46:53.139Z,12.63
2023-02-14T08:51:56.164Z,12.73
2023-02-14T08:56:59.276Z,12.72
2023-02-14T09:02:02.477Z,12.75
2023-02-14T09:07:05.483Z,12.84
2023-02-14T09:12:09.842Z,12.96
2023-02-14T09:17:14.029Z,13.08
2023-02-14T09:22:19.257Z,13.12
2023-02-14T09:27:22.464Z,13.07
2023-02-14T09:32:25.796Z,13.13
2023-02-14T09:37:28.875Z,13.08
2023-02-14T09:42:46.037Z,13.11
2023-02-14T09:48:04.021Z,13.26
2023-02-14T09:53:16.264Z,13.36
2023-02-14T09:58:34.497Z,13.49
2023-02-14T10:03:52.031Z,13.66
2023-02-14T10:09:10.463Z,13.68
2023-02-14T10:14:23.468Z,13.74
2023-02-14T10:19:28.911Z,13.75
2023-02-14T10:24:49.877Z,13.88
2023-02-14T10:29:53.520Z,13.93
2023-02-14T10:35:00.749Z,13.95
2023-02-14T10:40:22.262Z,14.01
2023-02-14T10:46:06.732Z,14.03
2023-02-14T10:51:10.032Z,14.02
2023-02-14T10:56:22.497Z,14.04
2023-02-14T11:01:26.125Z,14.14
2023-02-14T11:06:30.388Z,14.25
2023-02-14T11:11:33.479Z,14.36
2023-02-14T11:16:37.993Z,14.36
2023-02-14T11:21:47.911Z,14.40
2023-02-14T11:26:51.649Z,14.42
2023-02-14T11:31:56.035Z,14.42
2023-02-14T11:37:00.415Z,14.45
2023-02-14T11:42:05.689Z,14.42
2023-02-14T11:47:25.913Z,14.41
2023-02-14T11:52:30.431Z,14.44
2023-02-14T11:57:38.071Z,14.56
2023-02-14T12:02:53.349Z,14.57
2023-02-14T12:08:00.268Z,14.50
2023-02-14T12:13:10.066Z,14.47
2023-02-14T12:18:33.636Z,14.17
2023-02-14T12:23:57.061Z,13.77
2023-02-14T12:29:25.191Z,13.56
2023-02-14T12:34:28.813Z,13.55
2023-02-14T12:39:48.869Z,13.68
2023-02-14T12:45:03.381Z,13.77
2023-02-14T12:50:15.822Z,13.84
2023-02-14T12:55:33.974Z,13.87
2023-02-14T13:00:40.084Z,13.83
2023-02-14T13:06:13.778Z,13.84
2023-02-14T13:11:26.264Z,13.86
2023-02-14T13:16:53.777Z,13.87
2023-02-14T13:21:59.771Z,13.86
2023-02-14T13:27:07.172Z,13.86
2023-02-14T13:32:15.562Z,13.84
2023-02-14T13:37:22.762Z,13.75
2023-02-14T13:42:47.304Z,13.72
2023-02-14T13:48:21.850Z,13.68
2023-02-14T13:53:38.780Z,13.58
2023-02-14T13:59:00.612Z,13.47
2023-02-14T14:04:39.287Z,13.36
2023-02-14T14:09:42.504Z,13.33
2023-02-14T14:15:05.772Z,13.30
2023-02-14T14:20:22.155Z,13.19
2023-02-14T14:25:34.080Z,13.11
2023-02-14T14:30:38.671Z,13.04
2023-02-14T14:35:56.581Z,12.94
2023-02-14T14:41:01.277Z,12.84
2023-02-14T14:46:07.885Z,12.73
2023-02-14T14:51:34.139Z,12.57
2023-02-14T14:56:57.453Z,12.45
2023-02-14T15:02:01.033Z,12.36
2023-02-14T15:07:27.368Z,12.24
2023-02-14T15:12:30.836Z,12.14
2023-02-14T15:17:33.746Z,12.03
2023-02-14T15:22:44.104Z,11.94
2023-02-14T15:27:47.801Z,11.81
2023-02-14T15:32:52.953Z,11.80
2023-02-14T15:38:00.222Z,11.75
2023-02-14T15:43:19.296Z,11.71
2023-02-14T15:48:34.224Z,11.61
2023-02-14T15:53:45.399Z,11.57
2023-02-14T15:58:49.225Z,11.54
2023-02-14T16:03:55.969Z,11.50
2023-02-14T16:08:59.285Z,11.49
2023-02-14T16:14:27.321Z,11.49
2023-02-14T16:19:46.489Z,11.48
2023-02-14T16:24:49.817Z,11.46
2023-02-14T16:29:53.448Z,11.42
2023-02-14T16:34:56.433Z,11.38
2023-02-14T16:40:02.004Z,11.35
2023-02-14T16:45:06.634Z,11.34
2023-02-14T16:50:10.016Z,11.33
2023-02-14T16:55:18.059Z,11.32
2023-02-14T17:00:21.559Z,11.31
2023-02-14T17:05:24.839Z,11.29
2023-02-14T17:10:29.026Z,11.26
2023-02-14T17:15:32.677Z,11.27
2023-02-14T17:20:36.520Z,11.25
2023-02-14T17:25:40.176Z,11.21
2023-02-14T17:30:43.102Z,11.19
2023-02-14T17:35:46.581Z,11.19
2023-02-14T17:40:49.791Z,11.13
2023-02-14T17:45:53.030Z,11.17
2023-02-14T17:50:56.216Z,11.11
2023-02-14T17:56:06.460Z,11.05
2023-02-14T18:01:13.282Z,11.01
2023-02-14T18:06:16.903Z,10.96
2023-02-14T18:11:21.651Z,10.93
2023-02-14T18:16:25.408Z,10.91
2023-02-14T18:21:32.916Z,10.86
2023-02-14T18:26:37.678Z,10.83
2023-02-14T18:31:42.902Z,10.80
2023-02-14T18:36:46.095Z,10.75
2023-02-14T18:41:49.322Z,10.71
2023-02-14T18:46:52.505Z,10.66
2023-02-14T18:51:55.796Z,10.64
2023-02-14T18:56:58.959Z,10.61
2023-02-14T19:02:02.302Z,10.57
2023-02-14T19:07:05.485Z,10.52
2023-02-14T19:12:10.415Z,10.50
2023-02-14T19:17:13.616Z,10.44
2023-02-14T19:22:16.760Z,10.43
2023-02-14T19:27:20.086Z,10.41
2023-02-14T19:32:23.188Z,10.37
2023-02-14T19:37:26.521Z,10.35
2023-02-14T19:42:30.048Z,10.31
2023-02-14T19:47:46.218Z,10.32
2023-02-14T19:52:50.170Z,10.31
2023-02-14T19:57:53.489Z,10.30
2023-02-14T20:02:56.622Z,10.28
2023-02-14T20:07:59.683Z,10.25
2023-02-14T20:13:03.032Z,10.22
2023-02-14T20:18:06.307Z,10.22
2023-02-14T20:23:09.452Z,10.19
2023-02-14T20:28:12.476Z,10.16
2023-02-14T20:33:15.672Z,10.14
2023-02-14T20:38:19.111Z,10.09
2023-02-14T20:43:24.856Z,10.07
2023-02-14T20:48:29.067Z,10.04
2023-02-14T20:53:32.510Z,10.03
2023-02-14T20:58:37.208Z,10.02
2023-02-14T21:03:42.166Z,10.02
2023-02-14T21:08:46.043Z,10.02
2023-02-14T21:13:49.923Z,10.00
2023-02-14T21:18:56.727Z,10.01
2023-02-14T21:24:01.656Z,10.02
2023-02-14T21:29:06.487Z,9.98
2023-02-14T21:34:09.639Z,9.99
2023-02-14T21:39:13.351Z,10.01
2023-02-14T21:44:16.687Z,10.03
2023-02-14T21:49:19.901Z,10.05
2023-02-14T21:54:24.788Z,10.07
2023-02-14T21:59:28.364Z,10.10
2023-02-14T22:04:31.507Z,10.07
2023-02-14T22:09:34.984Z,10.08
2023-02-14T22:14:37.981Z,10.07
2023-02-14T22:19:41.169Z,10.06
2023-02-14T22:24:44.288Z,10.06
2023-02-14T22:29:47.385Z,10.11
2023-02-14T22:34:50.576Z,10.20
2023-02-14T22:39:53.712Z,10.38
2023-02-14T22:44:56.905Z,10.51
2023-02-14T22:50:01.597Z,10.59
2023-02-14T22:55:06.770Z,10.62
2023-02-14T23:00:10.518Z,10.63
2023-02-14T23:05:14.162Z,10.63
2023-02-14T23:10:17.344Z,10.57
2023-02-14T23:15:20.411Z,10.60
2023-02-14T23:20:23.890Z,10.60
2023-02-14T23:25:27.528Z,10.56
2023-02-14T23:30:30.498Z,10.57
2023-02-14T23:35:36.315Z,10.57
2023-02-14T23:40:39.492Z,10.49
2023-02-14T23:45:42.595Z,10.43
2023-02-14T23:50:46.088Z,10.38
2023-02-14T23:55:49.362Z,10.32
